createdAt,value
2023-02-16T00:01:54.772Z,6.75
2023-02-16T00:04:22.535Z,6.58
2023-02-16T00:06:49.617Z,6.25
2023-02-16T00:09:16.734Z,6.38
2023-02-16T00:12:02.546Z,6.08
2023-02-16T00:14:29.046Z,6.16
2023-02-16T00:16:57.250Z,6.17
2023-02-16T00:19:28.010Z,6.13
2023-02-16T00:21:56.750Z,6.27
2023-02-16T00:24:24.682Z,6.17
2023-02-16T00:26:51.225Z,6.31
2023-02-16T00:29:21.190Z,6.32
2023-02-16T00:31:48.006Z,6.19
2023-02-16T00:34:26.850Z,6.06
2023-02-16T00:36:53.485Z,5.98
2023-02-16T00:39:19.936Z,5.72
2023-02-16T00:41:52.367Z,6.30
2023-02-16T00:44:29.993Z,6.29
2023-02-16T00:46:56.843Z,6.17
2023-02-16T00:49:23.347Z,6.12
2023-02-16T00:51:50.426Z,6.41
2023-02-16T00:54:16.909Z,6.53
2023-02-16T00:56:43.579Z,6.33
2023-02-16T00:59:16.230Z,6.14
2023-02-16T01:01:42.957Z,6.22
2023-02-16T01:04:13.853Z,6.30
2023-02-16T01:06:58.966Z,6.30
2023-02-16T01:09:44.018Z,6.05
2023-02-16T01:12:15.317Z,5.93
2023-02-16T01:14:52.397Z,5.85
2023-02-16T01:17:18.937Z,5.89
2023-02-16T01:19:45.401Z,5.79
2023-02-16T01:22:11.875Z,6.05
2023-02-16T01:24:38.463Z,6.15
2023-02-16T01:27:04.916Z,5.85
2023-02-16T01:29:31.365Z,6.31
2023-02-16T01:31:57.970Z,6.36
2023-02-16T01:34:25.482Z,6.03
2023-02-16T01:36:52.084Z,6.24
2023-02-16T01:39:20.680Z,6.38
2023-02-16T01:41:56.550Z,6.00
2023-02-16T01:44:47.007Z,6.21
2023-02-16T01:47:52.050Z,6.24
2023-02-16T01:50:27.274Z,6.11
2023-02-16T01:53:19.894Z,6.26
2023-02-16T01:55:48.205Z,6.22
2023-02-16T01:58:38.662Z,5.86
2023-02-16T02:01:05.352Z,5.92
2023-02-16T02:03:53.174Z,6.31
2023-02-16T02:06:31.149Z,6.17
2023-02-16T02:09:03.920Z,6.04
2023-02-16T02:11:34.616Z,5.75
2023-02-16T02:14:20.094Z,5.56
2023-02-16T02:16:59.650Z,5.48
2023-02-16T02:19:26.263Z,5.55
2023-02-16T02:22:49.930Z,5.91
2023-02-16T02:25:47.964Z,5.94
2023-02-16T02:28:25.543Z,5.62
2023-02-16T02:31:23.083Z,5.46
2023-02-16T02:34:01.901Z,5.61
2023-02-16T02:36:40.633Z,5.74
2023-02-16T02:39:33.883Z,5.80
2023-02-16T02:42:06.275Z,5.70
2023-02-16T02:44:40.922Z,5.70
2023-02-16T02:47:07.788Z,5.87
2023-02-16T02:49:34.265Z,5.74
2023-02-16T02:52:00.945Z,5.64
2023-02-16T02:54:52.621Z,5.64
2023-02-16T02:57:43.212Z,5.75
2023-02-16T03:00:28.489Z,5.24
2023-02-16T03:03:01.664Z,5.74
2023-02-16T03:05:29.594Z,5.39
2023-02-16T03:08:14.004Z,5.36
2023-02-16T03:11:09.237Z,5.19
2023-02-16T03:14:06.025Z,5.40
2023-02-16T03:16:38.483Z,5.64
2023-02-16T03:19:25.575Z,5.55
2023-02-16T03:22:10.773Z,5.67
2023-02-16T03:24:55.842Z,5.22
2023-02-16T03:27:44.332Z,5.53
2023-02-16T03:30:11.954Z,5.49
2023-02-16T03:32:39.536Z,5.99
2023-02-16T03:35:06.540Z,5.79
2023-02-16T03:37:33.437Z,5.81
2023-02-16T03:40:18.678Z,5.66
2023-02-16T03:42:50.125Z,5.98
2023-02-16T03:45:17.473Z,5.59
2023-02-16T03:47:43.932Z,5.69
2023-02-16T03:50:10.491Z,5.93
2023-02-16T03:52:36.924Z,5.86
2023-02-16T03:55:03.520Z,5.86
2023-02-16T03:57:29.956Z,5.69
2023-02-16T03:59:59.183Z,5.75
2023-02-16T04:02:27.705Z,5.62
2023-02-16T04:04:54.302Z,5.69
2023-02-16T04:07:20.835Z,5.43
2023-02-16T04:09:47.362Z,5.62
2023-02-16T04:12:32.307Z,5.54
2023-02-16T04:14:58.821Z,5.42
2023-02-16T04:17:25.271Z,5.70
2023-02-16T04:19:51.728Z,5.68
2023-02-16T04:22:18.215Z,5.52
2023-02-16T04:24:44.688Z,5.63
2023-02-16T04:27:11.214Z,5.78
2023-02-16T04:29:37.637Z,5.97
2023-02-16T04:32:04.886Z,5.79
2023-02-16T04:34:31.421Z,5.76
2023-02-16T04:36:57.874Z,5.78
2023-02-16T04:39:24.336Z,5.78
2023-02-16T04:41:50.808Z,5.61
2023-02-16T04:44:17.336Z,5.72
2023-02-16T04:46:43.861Z,5.64
2023-02-16T04:49:10.301Z,5.95
2023-02-16T04:51:36.761Z,5.67
2023-02-16T04:54:03.237Z,5.63
2023-02-16T04:56:29.777Z,5.63
2023-02-16T04:58:56.578Z,5.80
2023-02-16T05:01:24.851Z,5.90
2023-02-16T05:03:51.415Z,5.74
2023-02-16T05:06:18.446Z,5.88
2023-02-16T05:08:45.371Z,5.89
2023-02-16T05:11:30.523Z,5.78
2023-02-16T05:14:16.758Z,6.07
2023-02-16T05:16:43.567Z,6.07
2023-02-16T05:19:10.029Z,5.67
2023-02-16T05:21:36.584Z,5.71
2023-02-16T05:24:09.289Z,5.73
2023-02-16T05:26:37.035Z,5.81
2023-02-16T05:29:04.083Z,5.55
2023-02-16T05:31:38.007Z,5.54
2023-02-16T05:34:04.658Z,5.94
2023-02-16T05:36:31.282Z,5.80
2023-02-16T05:38:57.752Z,5.72
2023-02-16T05:41:24.319Z,5.84
2023-02-16T05:43:52.304Z,5.78
2023-02-16T05:46:19.830Z,5.75
2023-02-16T05:48:46.435Z,5.69
2023-02-16T05:51:13.496Z,5.74
2023-02-16T05:53:40.218Z,5.61
2023-02-16T05:56:07.543Z,5.92
2023-02-16T05:58:34.101Z,5.66
2023-02-16T06:01:01.028Z,5.69
2023-02-16T06:03:27.893Z,5.60
2023-02-16T06:06:00.617Z,5.61
2023-02-16T06:08:27.824Z,5.63
2023-02-16T06:10:54.689Z,5.55
2023-02-16T06:13:22.007Z,5.90
2023-02-16T06:15:52.280Z,5.79
2023-02-16T06:18:18.878Z,6.01
2023-02-16T06:20:45.694Z,6.00
2023-02-16T06:23:13.349Z,6.20
2023-02-16T06:25:44.387Z,5.97
2023-02-16T06:28:11.350Z,6.12
2023-02-16T06:30:38.011Z,6.27
2023-02-16T06:33:04.602Z,6.06
2023-02-16T06:35:31.404Z,6.00
2023-02-16T06:37:59.242Z,6.14
2023-02-16T06:40:26.064Z,6.35
2023-02-16T06:42:52.565Z,6.46
2023-02-16T06:45:19.382Z,6.20
2023-02-16T06:47:45.921Z,6.17
2023-02-16T06:50:14.493Z,6.39
2023-02-16T06:52:41.137Z,6.47
2023-02-16T06:55:08.208Z,6.49
2023-02-16T06:57:34.660Z,6.10
2023-02-16T07:00:01.114Z,6.31
2023-02-16T07:02:27.545Z,6.59
2023-02-16T07:04:54.621Z,6.10
2023-02-16T07:07:21.176Z,5.81
2023-02-16T07:09:47.801Z,6.20
2023-02-16T07:12:14.337Z,6.47
2023-02-16T07:14:42.508Z,6.30
2023-02-16T07:17:10.312Z,6.46
2023-02-16T07:19:36.772Z,6.89
2023-02-16T07:22:05.183Z,6.65
2023-02-16T07:24:31.657Z,6.65
2023-02-16T07:26:58.097Z,6.89
2023-02-16T07:29:24.557Z,7.25
2023-02-16T07:31:51.539Z,6.89
2023-02-16T07:34:20.181Z,6.60
2023-02-16T07:36:47.338Z,6.73
2023-02-16T07:39:13.790Z,6.96
2023-02-16T07:41:40.245Z,6.98
2023-02-16T07:44:06.729Z,6.98
2023-02-16T07:46:33.522Z,7.17
2023-02-16T07:49:00.357Z,7.17
2023-02-16T07:51:28.975Z,6.92
2023-02-16T07:53:55.467Z,7.07
2023-02-16T07:56:27.071Z,7.23
2023-02-16T07:58:55.326Z,7.30
2023-02-16T08:01:22.451Z,6.90
2023-02-16T08:03:49.365Z,7.29
2023-02-16T08:06:16.300Z,6.83
2023-02-16T08:08:42.853Z,6.69
2023-02-16T08:11:19.305Z,7.19
2023-02-16T08:13:46.125Z,7.28
2023-02-16T08:16:18.841Z,7.04
2023-02-16T08:18:45.534Z,7.57
2023-02-16T08:21:18.104Z,7.71
2023-02-16T08:23:56.348Z,6.92
2023-02-16T08:26:24.417Z,7.28
2023-02-16T08:28:51.720Z,7.37
2023-02-16T08:31:23.347Z,7.63
2023-02-16T08:33:50.995Z,7.23
2023-02-16T08:36:19.578Z,7.67
2023-02-16T08:38:50.121Z,7.28
2023-02-16T08:41:18.079Z,7.29
2023-02-16T08:43:44.592Z,7.48
2023-02-16T08:46:11.359Z,7.81
2023-02-16T08:48:39.884Z,7.52
2023-02-16T08:51:07.122Z,7.38
2023-02-16T08:53:35.061Z,8.07
2023-02-16T08:56:03.948Z,7.86
2023-02-16T08:58:31.403Z,8.02
2023-02-16T09:00:58.036Z,7.60
2023-02-16T09:03:25.028Z,7.88
2023-02-16T09:05:55.400Z,7.88
2023-02-16T09:08:21.897Z,7.81
2023-02-16T09:10:48.401Z,7.78
2023-02-16T09:13:15.088Z,7.59
2023-02-16T09:15:43.134Z,7.89
2023-02-16T09:18:14.129Z,7.97
2023-02-16T09:20:44.301Z,7.93
2023-02-16T09:23:12.817Z,7.88
2023-02-16T09:25:40.147Z,8.41
2023-02-16T09:28:06.898Z,7.81
2023-02-16T09:30:34.734Z,7.96
2023-02-16T09:33:01.437Z,7.89
2023-02-16T09:35:27.964Z,8.01
2023-02-16T09:37:54.415Z,8.11
2023-02-16T09:40:21.359Z,7.68
2023-02-16T09:42:58.439Z,8.28
2023-02-16T09:45:26.950Z,8.15
2023-02-16T09:47:55.189Z,7.84
2023-02-16T09:50:52.224Z,7.93
2023-02-16T09:53:40.356Z,8.19
2023-02-16T09:56:25.198Z,7.41
2023-02-16T09:58:57.718Z,7.98
2023-02-16T10:01:34.969Z,8.38
2023-02-16T10:04:20.222Z,8.00
2023-02-16T10:06:58.451Z,7.58
2023-02-16T10:09:27.831Z,8.22
2023-02-16T10:12:12.966Z,8.71
2023-02-16T10:14:56.638Z,9.23
2023-02-16T10:17:37.866Z,8.19
2023-02-16T10:20:16.935Z,8.41
2023-02-16T10:22:53.285Z,8.57
2023-02-16T10:25:37.333Z,8.55
2023-02-16T10:28:22.659Z,8.79
2023-02-16T10:30:55.070Z,8.86
2023-02-16T10:33:33.887Z,8.61
2023-02-16T10:36:04.296Z,8.55
2023-02-16T10:38:40.499Z,8.67
2023-02-16T10:41:28.916Z,8.99
2023-02-16T10:44:01.610Z,8.93
2023-02-16T10:46:38.313Z,9.42
2023-02-16T10:49:04.952Z,9.17
2023-02-16T10:51:34.096Z,8.97
2023-02-16T10:54:21.971Z,9.44
2023-02-16T10:56:59.528Z,9.06
2023-02-16T10:59:44.705Z,9.45
2023-02-16T11:02:21.822Z,9.38
2023-02-16T11:04:52.479Z,9.34
2023-02-16T11:07:22.161Z,9.15
2023-02-16T11:09:53.853Z,9.33
2023-02-16T11:12:35.102Z,9.13
2023-02-16T11:15:13.979Z,9.42
2023-02-16T11:17:53.138Z,9.08
2023-02-16T11:20:51.728Z,9.39
2023-02-16T11:23:27.734Z,9.39
2023-02-16T11:26:13.104Z,9.21
2023-02-16T11:28:42.870Z,9.31
2023-02-16T11:31:21.660Z,9.35
2023-02-16T11:34:05.856Z,9.41
2023-02-16T11:36:38.330Z,9.60
2023-02-16T11:39:14.200Z,9.58
2023-02-16T11:41:56.204Z,9.42
2023-02-16T11:44:32.295Z,9.77
2023-02-16T11:47:01.546Z,9.98
2023-02-16T11:49:42.115Z,9.60
2023-02-16T11:52:37.163Z,9.48
2023-02-16T11:55:04.861Z,9.34
2023-02-16T11:57:35.912Z,9.45
2023-02-16T12:00:14.667Z,9.82
2023-02-16T12:03:09.981Z,9.69
2023-02-16T12:05:43.738Z,9.83
2023-02-16T12:08:25.455Z,9.64
2023-02-16T12:11:06.881Z,9.60
2023-02-16T12:13:43.544Z,10.22
2023-02-16T12:16:48.824Z,10.20
2023-02-16T12:19:44.843Z,9.85
2023-02-16T12:22:14.298Z,9.99
2023-02-16T12:24:57.065Z,10.36
2023-02-16T12:27:40.625Z,10.60
2023-02-16T12:30:28.356Z,10.61
2023-02-16T12:33:13.549Z,10.62
2023-02-16T12:35:51.427Z,10.15
2023-02-16T12:38:55.609Z,10.83
2023-02-16T12:41:53.009Z,10.18
2023-02-16T12:44:29.810Z,10.05
2023-02-16T12:47:08.408Z,10.66
2023-02-16T12:49:43.986Z,10.19
2023-02-16T12:52:18.890Z,10.11
2023-02-16T12:54:49.664Z,10.60
2023-02-16T12:57:20.635Z,10.19
2023-02-16T12:59:55.460Z,10.41
2023-02-16T13:02:43.121Z,10.01
2023-02-16T13:05:21.313Z,10.53
2023-02-16T13:07:52.501Z,10.09
2023-02-16T13:10:39.266Z,9.76
2023-02-16T13:13:12.457Z,10.39
2023-02-16T13:16:17.440Z,10.92
2023-02-16T13:18:56.308Z,10.74
2023-02-16T13:21:51.579Z,10.66
2023-02-16T13:24:40.281Z,10.36
2023-02-16T13:27:22.152Z,10.41
2023-02-16T13:29:54.689Z,10.29
2023-02-16T13:32:46.657Z,10.33
2023-02-16T13:35:25.813Z,10.04
2023-02-16T13:38:10.999Z,10.35
2023-02-16T13:40:51.369Z,10.82
2023-02-16T13:43:26.763Z,10.81
2023-02-16T13:45:54.602Z,10.95
2023-02-16T13:48:29.255Z,11.04
2023-02-16T13:51:05.262Z,10.93
2023-02-16T13:53:40.101Z,10.83
2023-02-16T13:56:29.931Z,11.07
2023-02-16T13:59:19.658Z,10.85
2023-02-16T14:01:47.571Z,10.77
2023-02-16T14:04:23.198Z,10.87
2023-02-16T14:07:13.419Z,10.86
2023-02-16T14:09:39.919Z,10.78
2023-02-16T14:12:09.520Z,10.34
2023-02-16T14:14:42.054Z,10.26
2023-02-16T14:17:14.867Z,10.43
2023-02-16T14:20:00.693Z,10.23
2023-02-16T14:22:45.682Z,10.30
2023-02-16T14:25:24.476Z,10.66
2023-02-16T14:27:51.596Z,10.56
2023-02-16T14:30:27.915Z,10.55
2023-02-16T14:33:27.730Z,10.63
2023-02-16T14:36:00.471Z,10.17
2023-02-16T14:38:40.211Z,10.60
2023-02-16T14:41:13.879Z,10.66
2023-02-16T14:43:45.769Z,10.25
2023-02-16T14:46:18.271Z,11.04
2023-02-16T14:49:22.486Z,10.51
2023-02-16T14:51:57.944Z,10.92
2023-02-16T14:54:43.245Z,10.26
2023-02-16T14:57:24.368Z,10.52
2023-02-16T15:00:02.165Z,10.36
2023-02-16T15:02:30.204Z,10.17
2023-02-16T15:04:57.295Z,10.40
2023-02-16T15:07:25.648Z,9.99
2023-02-16T15:09:57.371Z,10.46
2023-02-16T15:12:29.992Z,10.22
2023-02-16T15:15:07.557Z,9.97
2023-02-16T15:17:38.082Z,10.29
2023-02-16T15:20:21.723Z,9.86
2023-02-16T15:22:57.017Z,10.33
2023-02-16T15:25:27.771Z,10.51
2023-02-16T15:28:14.855Z,10.65
2023-02-16T15:30:53.179Z,10.27
2023-02-16T15:33:23.873Z,10.42
2023-02-16T15:35:57.216Z,10.53
2023-02-16T15:38:34.752Z,10.45
2023-02-16T15:41:04.489Z,10.76
2023-02-16T15:43:43.805Z,10.55
2023-02-16T15:46:23.907Z,10.49
2023-02-16T15:48:50.945Z,10.16
2023-02-16T15:51:33.386Z,10.17
2023-02-16T15:54:01.191Z,10.21
2023-02-16T15:56:45.534Z,10.19
2023-02-16T15:59:35.346Z,10.10
2023-02-16T16:02:21.870Z,10.19
2023-02-16T16:05:01.094Z,10.34
2023-02-16T16:07:32.128Z,10.27
2023-02-16T16:10:00.120Z,10.27
2023-02-16T16:12:27.126Z,10.45
2023-02-16T16:14:56.391Z,10.31
2023-02-16T16:17:29.776Z,10.19
2023-02-16T16:19:58.165Z,10.49
2023-02-16T16:22:39.724Z,10.09
2023-02-16T16:25:30.402Z,10.06
2023-02-16T16:27:57.253Z,10.16
2023-02-16T16:30:23.728Z,10.32
2023-02-16T16:33:07.711Z,10.62
2023-02-16T16:35:46.441Z,10.67
2023-02-16T16:38:28.234Z,10.26
2023-02-16T16:40:57.859Z,10.63
2023-02-16T16:43:32.925Z,10.72
2023-02-16T16:46:19.266Z,10.12
2023-02-16T16:48:47.659Z,10.35
2023-02-16T16:51:36.487Z,10.53
2023-02-16T16:54:05.578Z,10.43
2023-02-16T16:56:36.830Z,10.29
2023-02-16T16:59:04.220Z,10.16
2023-02-16T17:01:31.105Z,10.14
2023-02-16T17:03:58.177Z,9.70
2023-02-16T17:06:25.320Z,10.33
2023-02-16T17:08:51.969Z,10.27
2023-02-16T17:11:34.241Z,10.29
2023-02-16T17:14:08.492Z,10.29
2023-02-16T17:16:38.520Z,10.18
2023-02-16T17:19:05.064Z,10.25
2023-02-16T17:21:31.527Z,10.21
2023-02-16T17:23:57.972Z,10.19
2023-02-16T17:26:24.529Z,10.35
2023-02-16T17:28:51.145Z,10.43
2023-02-16T17:31:17.718Z,10.45
2023-02-16T17:33:44.875Z,10.47
2023-02-16T17:36:13.871Z,10.40
2023-02-16T17:38:40.404Z,10.24
2023-02-16T17:41:06.926Z,10.49
2023-02-16T17:43:33.377Z,10.26
2023-02-16T17:46:04.700Z,10.03
2023-02-16T17:48:31.443Z,9.97
2023-02-16T17:50:58.280Z,10.42
2023-02-16T17:53:25.903Z,10.91
2023-02-16T17:55:54.572Z,10.70
2023-02-16T17:58:22.332Z,10.87
2023-02-16T18:00:48.972Z,10.43
2023-02-16T18:03:15.601Z,10.18
2023-02-16T18:05:42.099Z,10.20
2023-02-16T18:08:08.662Z,10.26
2023-02-16T18:10:46.549Z,10.10
2023-02-16T18:13:13.815Z,10.59
2023-02-16T18:15:42.767Z,10.48
2023-02-16T18:18:09.362Z,9.95
2023-02-16T18:20:36.023Z,9.85
2023-02-16T18:23:02.691Z,9.90
2023-02-16T18:25:30.880Z,10.05
2023-02-16T18:27:57.651Z,9.85
2023-02-16T18:30:24.482Z,10.34
2023-02-16T18:32:51.932Z,10.22
2023-02-16T18:35:19.878Z,10.54
2023-02-16T18:37:47.521Z,10.21
2023-02-16T18:40:17.761Z,9.86
2023-02-16T18:42:45.530Z,10.27
2023-02-16T18:45:12.880Z,10.12
2023-02-16T18:47:42.884Z,9.79
2023-02-16T18:50:09.965Z,9.70
2023-02-16T18:52:37.121Z,9.83
2023-02-16T18:55:03.963Z,9.84
2023-02-16T18:57:33.715Z,9.56
2023-02-16T19:00:01.126Z,9.55
2023-02-16T19:02:28.144Z,9.55
2023-02-16T19:04:58.787Z,9.39
2023-02-16T19:07:33.226Z,9.57
2023-02-16T19:10:03.672Z,10.08
2023-02-16T19:12:33.876Z,9.83
2023-02-16T19:15:00.647Z,9.89
2023-02-16T19:17:30.528Z,9.84
2023-02-16T19:19:57.521Z,9.86
2023-02-16T19:22:24.822Z,9.89
2023-02-16T19:24:54.116Z,9.94
2023-02-16T19:27:21.061Z,9.39
2023-02-16T19:29:51.062Z,9.84
2023-02-16T19:32:21.073Z,9.76
2023-02-16T19:34:54.145Z,9.84
2023-02-16T19:37:24.372Z,9.82
2023-02-16T19:39:54.270Z,9.29
2023-02-16T19:42:21.991Z,10.08
2023-02-16T19:45:00.242Z,10.26
2023-02-16T19:47:27.520Z,9.84
2023-02-16T19:49:54.909Z,9.16
2023-02-16T19:52:27.776Z,10.03
2023-02-16T19:54:55.402Z,9.67
2023-02-16T19:57:21.913Z,9.83
2023-02-16T19:59:48.347Z,9.75
2023-02-16T20:02:15.594Z,10.22
2023-02-16T20:04:42.953Z,9.44
2023-02-16T20:07:09.835Z,9.88
2023-02-16T20:09:37.361Z,9.33
2023-02-16T20:12:04.733Z,9.87
2023-02-16T20:14:31.306Z,9.97
2023-02-16T20:16:57.742Z,9.46
2023-02-16T20:19:24.241Z,9.37
2023-02-16T20:21:51.348Z,9.86
2023-02-16T20:24:18.819Z,9.50
2023-02-16T20:26:47.134Z,9.53
2023-02-16T20:29:17.917Z,9.04
2023-02-16T20:31:53.441Z,9.59
2023-02-16T20:34:21.503Z,9.23
2023-02-16T20:36:48.088Z,9.28
2023-02-16T20:39:15.139Z,9.55
2023-02-16T20:41:41.701Z,9.85
2023-02-16T20:44:08.251Z,9.46
2023-02-16T20:46:34.723Z,9.50
2023-02-16T20:49:01.268Z,9.80
2023-02-16T20:51:27.948Z,9.65
2023-02-16T20:53:54.430Z,9.46
2023-02-16T20:56:23.483Z,9.45
2023-02-16T20:58:51.332Z,9.46
2023-02-16T21:01:20.774Z,9.54
2023-02-16T21:03:47.406Z,9.77
2023-02-16T21:06:15.043Z,10.16
2023-02-16T21:08:41.728Z,10.27
2023-02-16T21:11:08.333Z,9.78
2023-02-16T21:13:38.712Z,9.84
2023-02-16T21:16:06.144Z,9.30
2023-02-16T21:18:33.392Z,10.01
2023-02-16T21:21:01.031Z,9.59
2023-02-16T21:23:28.110Z,9.43
2023-02-16T21:26:03.269Z,9.21
2023-02-16T21:28:30.018Z,9.43
2023-02-16T21:30:56.797Z,9.58
2023-02-16T21:33:23.337Z,9.38
2023-02-16T21:35:49.837Z,9.13
2023-02-16T21:38:17.801Z,9.33
2023-02-16T21:41:02.856Z,9.56
2023-02-16T21:43:31.457Z,9.45
2023-02-16T21:45:59.884Z,9.38
2023-02-16T21:48:44.950Z,9.80
2023-02-16T21:51:15.424Z,9.84
2023-02-16T21:53:41.972Z,9.70
2023-02-16T21:56:26.855Z,9.47
2023-02-16T21:58:53.536Z,9.67
2023-02-16T22:01:22.079Z,9.78
2023-02-16T22:03:48.681Z,9.50
2023-02-16T22:06:15.593Z,9.82
2023-02-16T22:08:42.221Z,9.74
2023-02-16T22:11:11.474Z,9.63
2023-02-16T22:13:38.652Z,9.88
2023-02-16T22:16:10.250Z,10.03
2023-02-16T22:18:37.184Z,9.79
2023-02-16T22:21:04.987Z,9.96
2023-02-16T22:23:31.604Z,9.67
2023-02-16T22:25:59.506Z,9.46
2023-02-16T22:28:27.720Z,9.63
2023-02-16T22:30:58.114Z,9.94
2023-02-16T22:33:24.952Z,9.71
2023-02-16T22:35:51.461Z,9.55
2023-02-16T22:38:20.358Z,9.79
2023-02-16T22:40:48.716Z,9.90
2023-02-16T22:43:16.803Z,10.01
2023-02-16T22:45:43.576Z,9.60
2023-02-16T22:48:10.069Z,9.94
2023-02-16T22:50:36.534Z,10.20
2023-02-16T22:53:05.076Z,10.18
2023-02-16T22:55:31.545Z,10.14
2023-02-16T22:57:57.984Z,9.91
2023-02-16T23:00:24.543Z,9.70
2023-02-16T23:02:51.012Z,9.97
2023-02-16T23:05:17.632Z,9.80
2023-02-16T23:07:44.102Z,9.95
2023-02-16T23:10:10.778Z,9.63
2023-02-16T23:12:37.309Z,9.77
2023-02-16T23:15:04.032Z,9.91
2023-02-16T23:17:30.510Z,9.68
2023-02-16T23:19:57.030Z,9.64
2023-02-16T23:22:23.503Z,10.19
2023-02-16T23:25:09.979Z,10.48
2023-02-16T23:27:36.512Z,10.26
2023-02-16T23:30:03.629Z,10.20
2023-02-16T23:32:30.130Z,10.07
2023-02-16T23:34:56.656Z,10.16
2023-02-16T23:37:23.117Z,9.85
2023-02-16T23:39:49.617Z,9.97
2023-02-16T23:42:16.106Z,10.05
2023-02-16T23:44:42.603Z,10.10
2023-02-16T23:47:09.100Z,10.58
2023-02-16T23:49:35.644Z,10.28
2023-02-16T23:52:02.120Z,10.21
2023-02-16T23:54:28.645Z,10.45
2023-02-16T23:56:55.115Z,10.14
2023-02-16T23:59:21.658Z,10.06
